DLH8AM EGCC-EDDV
Flight info
| Callsign | DLH8AM |
|---|---|
| Flight time | 1h 9m |
| Altitude | 37000 |
| Route | SONEX UL975 DESIG L603 LAMSO DCT PETIK DCT ANDIK DCT PIPQU DCT EFIDE T463 NIE |
| Aircraft | A321/M-DE2E3FGIJ1LORVWXYZ/HB2 |
Departure
| Time | 2026-05-08 01:03 |
|---|---|
| Airport | Manchester Airport (EGCC) |
Arrival
| Time | 2026-05-08 02:12 |
|---|---|
| Airport | Hannover Airport (EDDV) |
| Time | Latitude | Longitude | Altitude | Speed | Heading |
|---|---|---|---|---|---|
| 2026-05-08 00:33 | 53.36552 | -2.27938 | 255 ft | 0 kts | 45° |
| 2026-05-08 00:53 | 53.36539 | -2.27961 | 255 ft | 4 kts | 45° |
| 2026-05-08 00:54 | 53.36520 | -2.27991 | 255 ft | 2 kts | 45° |
| 2026-05-08 00:54 | 53.36508 | -2.28018 | 255 ft | 4 kts | 92° |
| 2026-05-08 00:54 | 53.36519 | -2.28051 | 255 ft | 4 kts | 135° |
| 2026-05-08 00:54 | 53.36511 | -2.28038 | 255 ft | 2 kts | 135° |
| 2026-05-08 00:55 | 53.36510 | -2.28036 | 255 ft | 0 kts | 135° |
| 2026-05-08 00:56 | 53.36505 | -2.28028 | 255 ft | 2 kts | 138° |
| 2026-05-08 00:57 | 53.36478 | -2.28000 | 255 ft | 7 kts | 148° |
| 2026-05-08 00:57 | 53.36429 | -2.27935 | 255 ft | 10 kts | 152° |
| 2026-05-08 00:57 | 53.36364 | -2.27980 | 255 ft | 11 kts | 221° |
| 2026-05-08 00:57 | 53.36295 | -2.28061 | 255 ft | 13 kts | 195° |
| 2026-05-08 00:58 | 53.36204 | -2.28044 | 255 ft | 14 kts | 141° |
| 2026-05-08 00:58 | 53.36124 | -2.27932 | 255 ft | 16 kts | 142° |
| 2026-05-08 00:58 | 53.36032 | -2.27811 | 255 ft | 18 kts | 142° |
| 2026-05-08 00:58 | 53.35927 | -2.27725 | 255 ft | 15 kts | 177° |
| 2026-05-08 00:59 | 53.35816 | -2.27723 | 252 ft | 14 kts | 162° |
| 2026-05-08 00:59 | 53.35736 | -2.27643 | 249 ft | 15 kts | 156° |
| 2026-05-08 00:59 | 53.35649 | -2.27562 | 246 ft | 13 kts | 143° |
| 2026-05-08 00:59 | 53.35628 | -2.27438 | 246 ft | 12 kts | 53° |
| 2026-05-08 01:00 | 53.35667 | -2.27358 | 254 ft | 4 kts | 50° |
| 2026-05-08 01:00 | 53.35707 | -2.27277 | 255 ft | 17 kts | 51° |
| 2026-05-08 01:00 | 53.35785 | -2.27114 | 255 ft | 19 kts | 52° |
| 2026-05-08 01:00 | 53.35846 | -2.26965 | 256 ft | 14 kts | 60° |
| 2026-05-08 01:01 | 53.35906 | -2.26822 | 256 ft | 16 kts | 55° |
| 2026-05-08 01:01 | 53.35974 | -2.26668 | 256 ft | 17 kts | 52° |
| 2026-05-08 01:01 | 53.36050 | -2.26503 | 256 ft | 19 kts | 51° |
| 2026-05-08 01:01 | 53.36132 | -2.26330 | 256 ft | 17 kts | 56° |
| 2026-05-08 01:02 | 53.36093 | -2.26188 | 256 ft | 15 kts | 150° |
| 2026-05-08 01:02 | 53.36011 | -2.26188 | 260 ft | 14 kts | 221° |
| 2026-05-08 01:02 | 53.35823 | -2.26563 | 270 ft | 80 kts | 231° |
| 2026-05-08 01:02 | 53.35306 | -2.27616 | 250 ft | 151 kts | 230° |
| 2026-05-08 01:03 | 53.34617 | -2.28993 | 904 ft | 150 kts | 230° |
| 2026-05-08 01:03 | 53.33956 | -2.30404 | 1557 ft | 163 kts | 229° |
| 2026-05-08 01:03 | 53.33212 | -2.31960 | 2110 ft | 178 kts | 230° |
| 2026-05-08 01:03 | 53.32482 | -2.33717 | 2596 ft | 192 kts | 241° |
| 2026-05-08 01:04 | 53.32118 | -2.35942 | 3052 ft | 208 kts | 265° |
| 2026-05-08 01:04 | 53.32457 | -2.38396 | 3355 ft | 234 kts | 297° |
| 2026-05-08 01:04 | 53.33668 | -2.40444 | 3660 ft | 264 kts | 330° |
| 2026-05-08 01:04 | 53.35396 | -2.41510 | 4420 ft | 271 kts | 340° |
| 2026-05-08 01:05 | 53.37238 | -2.42454 | 5285 ft | 275 kts | 341° |
| 2026-05-08 01:05 | 53.39077 | -2.43370 | 6141 ft | 278 kts | 341° |
| 2026-05-08 01:05 | 53.40939 | -2.44306 | 6960 ft | 281 kts | 340° |
| 2026-05-08 01:05 | 53.42821 | -2.45266 | 7758 ft | 285 kts | 342° |
| 2026-05-08 01:06 | 53.44819 | -2.45503 | 8517 ft | 295 kts | 7° |
| 2026-05-08 01:06 | 53.46743 | -2.44262 | 9286 ft | 302 kts | 34° |
| 2026-05-08 01:06 | 53.48184 | -2.41701 | 10020 ft | 306 kts | 62° |
| 2026-05-08 01:06 | 53.48809 | -2.38327 | 10710 ft | 304 kts | 90° |
| 2026-05-08 01:07 | 53.48587 | -2.34827 | 11431 ft | 303 kts | 104° |
| 2026-05-08 01:07 | 53.48420 | -2.31323 | 12140 ft | 309 kts | 88° |
| 2026-05-08 01:07 | 53.48868 | -2.27659 | 12373 ft | 333 kts | 75° |
| 2026-05-08 01:07 | 53.49511 | -2.23788 | 12527 ft | 355 kts | 76° |
| 2026-05-08 01:08 | 53.50029 | -2.19647 | 12862 ft | 367 kts | 82° |
| 2026-05-08 01:08 | 53.50371 | -2.15370 | 13478 ft | 372 kts | 84° |
| 2026-05-08 01:08 | 53.50666 | -2.11060 | 14115 ft | 375 kts | 84° |
| 2026-05-08 01:08 | 53.50992 | -2.06662 | 14714 ft | 379 kts | 83° |
| 2026-05-08 01:09 | 53.51367 | -2.02271 | 15298 ft | 382 kts | 82° |
| 2026-05-08 01:09 | 53.51794 | -1.97843 | 15881 ft | 386 kts | 82° |
| 2026-05-08 01:09 | 53.52227 | -1.93368 | 16450 ft | 389 kts | 85° |
| 2026-05-08 01:09 | 53.52302 | -1.88814 | 17012 ft | 391 kts | 96° |
| 2026-05-08 01:10 | 53.51898 | -1.84410 | 17569 ft | 392 kts | 107° |
| 2026-05-08 01:10 | 53.51113 | -1.79908 | 18144 ft | 394 kts | 109° |
| 2026-05-08 01:10 | 53.50321 | -1.75478 | 18649 ft | 398 kts | 109° |
| 2026-05-08 01:10 | 53.49525 | -1.71014 | 19130 ft | 400 kts | 109° |
| 2026-05-08 01:11 | 53.48723 | -1.66519 | 19618 ft | 403 kts | 109° |
| 2026-05-08 01:11 | 53.47960 | -1.62222 | 20078 ft | 405 kts | 109° |
| 2026-05-08 01:11 | 53.47157 | -1.57684 | 20561 ft | 408 kts | 109° |
| 2026-05-08 01:11 | 53.46346 | -1.53107 | 21024 ft | 410 kts | 109° |
| 2026-05-08 01:12 | 53.45526 | -1.48505 | 21481 ft | 413 kts | 109° |
| 2026-05-08 01:12 | 53.44694 | -1.43876 | 21951 ft | 416 kts | 109° |
| 2026-05-08 01:12 | 53.43854 | -1.39213 | 22428 ft | 418 kts | 109° |
| 2026-05-08 01:12 | 53.43007 | -1.34529 | 22905 ft | 421 kts | 109° |
| 2026-05-08 01:13 | 53.42153 | -1.29822 | 23365 ft | 424 kts | 109° |
| 2026-05-08 01:13 | 53.41293 | -1.25107 | 23791 ft | 426 kts | 109° |
| 2026-05-08 01:13 | 53.40419 | -1.20325 | 24178 ft | 429 kts | 109° |
| 2026-05-08 01:13 | 53.39546 | -1.15532 | 24565 ft | 431 kts | 109° |
| 2026-05-08 01:14 | 53.38683 | -1.10782 | 24937 ft | 433 kts | 109° |
| 2026-05-08 01:14 | 53.37804 | -1.05955 | 25319 ft | 435 kts | 109° |
| 2026-05-08 01:14 | 53.36913 | -1.01090 | 25679 ft | 438 kts | 109° |
| 2026-05-08 01:14 | 53.36011 | -0.96203 | 25993 ft | 441 kts | 109° |
| 2026-05-08 01:15 | 53.35101 | -0.91280 | 26366 ft | 444 kts | 109° |
| 2026-05-08 01:15 | 53.34187 | -0.86332 | 26731 ft | 446 kts | 109° |
| 2026-05-08 01:15 | 53.33266 | -0.81358 | 27083 ft | 449 kts | 109° |
| 2026-05-08 01:15 | 53.32336 | -0.76367 | 27452 ft | 451 kts | 109° |
| 2026-05-08 01:16 | 53.31396 | -0.71346 | 27809 ft | 453 kts | 109° |
| 2026-05-08 01:16 | 53.30468 | -0.66386 | 28156 ft | 455 kts | 109° |
| 2026-05-08 01:16 | 53.29521 | -0.61328 | 28498 ft | 458 kts | 109° |
| 2026-05-08 01:16 | 53.28565 | -0.56237 | 28839 ft | 460 kts | 109° |
| 2026-05-08 01:17 | 53.27600 | -0.51127 | 29152 ft | 462 kts | 109° |
| 2026-05-08 01:17 | 53.26628 | -0.46001 | 29454 ft | 464 kts | 109° |
| 2026-05-08 01:17 | 53.25649 | -0.40849 | 29743 ft | 466 kts | 109° |
| 2026-05-08 01:17 | 53.24666 | -0.35685 | 30022 ft | 467 kts | 109° |
| 2026-05-08 01:18 | 53.23682 | -0.30517 | 30381 ft | 466 kts | 110° |
| 2026-05-08 01:18 | 53.22701 | -0.25371 | 30728 ft | 465 kts | 110° |
| 2026-05-08 01:18 | 53.21718 | -0.20225 | 31046 ft | 464 kts | 110° |
| 2026-05-08 01:18 | 53.20736 | -0.15109 | 31369 ft | 464 kts | 110° |
| 2026-05-08 01:19 | 53.19746 | -0.09990 | 31687 ft | 463 kts | 110° |
| 2026-05-08 01:19 | 53.18753 | -0.04877 | 32008 ft | 463 kts | 110° |
| 2026-05-08 01:19 | 53.17761 | 0.00229 | 32332 ft | 463 kts | 110° |
| 2026-05-08 01:19 | 53.16769 | 0.05332 | 32594 ft | 464 kts | 110° |
| 2026-05-08 01:20 | 53.15773 | 0.10445 | 32886 ft | 464 kts | 110° |
| 2026-05-08 01:20 | 53.14776 | 0.15553 | 33211 ft | 463 kts | 110° |
| 2026-05-08 01:20 | 53.13778 | 0.20657 | 33508 ft | 463 kts | 110° |
| 2026-05-08 01:20 | 53.12781 | 0.25753 | 33820 ft | 462 kts | 110° |
| 2026-05-08 01:21 | 53.11782 | 0.30838 | 34124 ft | 462 kts | 110° |
| 2026-05-08 01:21 | 53.10781 | 0.35915 | 34372 ft | 462 kts | 110° |
| 2026-05-08 01:21 | 53.09775 | 0.40989 | 34611 ft | 462 kts | 110° |
| 2026-05-08 01:21 | 53.08768 | 0.46060 | 34842 ft | 462 kts | 110° |
| 2026-05-08 01:22 | 53.07758 | 0.51133 | 35062 ft | 462 kts | 110° |
| 2026-05-08 01:22 | 53.06744 | 0.56210 | 35249 ft | 463 kts | 110° |
| 2026-05-08 01:22 | 53.05726 | 0.61291 | 35450 ft | 464 kts | 110° |
| 2026-05-08 01:22 | 53.04704 | 0.66380 | 35667 ft | 464 kts | 110° |
| 2026-05-08 01:23 | 53.03684 | 0.71460 | 35897 ft | 464 kts | 110° |
| 2026-05-08 01:23 | 53.02660 | 0.76546 | 36133 ft | 464 kts | 110° |
| 2026-05-08 01:23 | 53.01648 | 0.81553 | 36346 ft | 464 kts | 110° |
| 2026-05-08 01:23 | 53.00619 | 0.86624 | 36558 ft | 463 kts | 110° |
| 2026-05-08 01:24 | 52.99588 | 0.91690 | 36771 ft | 463 kts | 110° |
| 2026-05-08 01:24 | 52.98557 | 0.96739 | 36962 ft | 463 kts | 110° |
| 2026-05-08 01:24 | 52.97660 | 1.01881 | 37090 ft | 465 kts | 103° |
| 2026-05-08 01:25 | 52.96446 | 1.12430 | 37117 ft | 466 kts | 102° |
| 2026-05-08 01:25 | 52.95434 | 1.21277 | 37117 ft | 466 kts | 102° |
| 2026-05-08 01:26 | 52.94219 | 1.31740 | 37121 ft | 465 kts | 103° |
| 2026-05-08 01:26 | 52.92967 | 1.42339 | 37120 ft | 465 kts | 103° |
| 2026-05-08 01:27 | 52.91732 | 1.52794 | 37111 ft | 466 kts | 103° |
| 2026-05-08 01:27 | 52.90473 | 1.63325 | 37117 ft | 466 kts | 103° |
| 2026-05-08 01:28 | 52.89202 | 1.73856 | 37123 ft | 467 kts | 103° |
| 2026-05-08 01:28 | 52.87921 | 1.84396 | 37133 ft | 467 kts | 103° |
| 2026-05-08 01:29 | 52.86634 | 1.94929 | 37134 ft | 467 kts | 103° |
| 2026-05-08 01:29 | 52.85342 | 2.05469 | 37131 ft | 467 kts | 103° |
| 2026-05-08 01:30 | 52.84034 | 2.15998 | 37132 ft | 467 kts | 103° |
| 2026-05-08 01:30 | 52.82714 | 2.26521 | 37136 ft | 467 kts | 103° |
| 2026-05-08 01:31 | 52.81396 | 2.36979 | 37135 ft | 468 kts | 103° |
| 2026-05-08 01:31 | 52.80048 | 2.47562 | 37141 ft | 468 kts | 103° |
| 2026-05-08 01:32 | 52.78698 | 2.58071 | 37132 ft | 468 kts | 103° |
| 2026-05-08 01:32 | 52.77343 | 2.68583 | 37134 ft | 468 kts | 103° |
| 2026-05-08 01:33 | 52.75977 | 2.79086 | 37138 ft | 468 kts | 104° |
| 2026-05-08 01:33 | 52.74611 | 2.89513 | 37142 ft | 468 kts | 104° |
| 2026-05-08 01:34 | 52.73231 | 3.00010 | 37142 ft | 468 kts | 103° |
| 2026-05-08 01:34 | 52.72117 | 3.10597 | 37122 ft | 469 kts | 99° |
| 2026-05-08 01:35 | 52.71239 | 3.21246 | 37117 ft | 469 kts | 99° |
| 2026-05-08 01:35 | 52.70327 | 3.31888 | 37121 ft | 469 kts | 100° |
| 2026-05-08 01:36 | 52.69323 | 3.42501 | 37130 ft | 469 kts | 100° |
| 2026-05-08 01:36 | 52.68296 | 3.53111 | 37119 ft | 469 kts | 100° |
| 2026-05-08 01:37 | 52.67265 | 3.63716 | 37133 ft | 468 kts | 101° |
| 2026-05-08 01:37 | 52.66233 | 3.74309 | 37137 ft | 468 kts | 101° |
| 2026-05-08 01:38 | 52.65199 | 3.84888 | 37144 ft | 468 kts | 101° |
| 2026-05-08 01:38 | 52.64152 | 3.95467 | 37144 ft | 468 kts | 101° |
| 2026-05-08 01:39 | 52.63096 | 4.06029 | 37128 ft | 468 kts | 101° |
| 2026-05-08 01:39 | 52.62037 | 4.16602 | 37130 ft | 468 kts | 98° |
| 2026-05-08 01:40 | 52.62202 | 4.27302 | 37124 ft | 471 kts | 79° |
| 2026-05-08 01:40 | 52.63492 | 4.37802 | 37126 ft | 471 kts | 79° |
| 2026-05-08 01:41 | 52.64777 | 4.48381 | 37124 ft | 471 kts | 79° |
| 2026-05-08 01:41 | 52.66048 | 4.58974 | 37132 ft | 472 kts | 79° |
| 2026-05-08 01:42 | 52.67308 | 4.69572 | 37143 ft | 472 kts | 79° |
| 2026-05-08 01:42 | 52.68561 | 4.80183 | 37136 ft | 471 kts | 79° |
| 2026-05-08 01:43 | 52.69804 | 4.90794 | 37137 ft | 471 kts | 80° |
| 2026-05-08 01:43 | 52.71033 | 5.01402 | 37136 ft | 471 kts | 80° |
| 2026-05-08 01:44 | 52.72251 | 5.12001 | 37152 ft | 471 kts | 80° |
| 2026-05-08 01:44 | 52.73419 | 5.22618 | 37138 ft | 470 kts | 84° |
| 2026-05-08 01:45 | 52.73245 | 5.33303 | 37145 ft | 465 kts | 103° |
| 2026-05-08 01:45 | 52.72015 | 5.43778 | 37145 ft | 466 kts | 102° |
| 2026-05-08 01:46 | 52.70848 | 5.54282 | 37134 ft | 466 kts | 102° |
| 2026-05-08 01:46 | 52.69693 | 5.64802 | 37133 ft | 466 kts | 102° |
| 2026-05-08 01:47 | 52.68502 | 5.75291 | 37137 ft | 466 kts | 102° |
| 2026-05-08 01:47 | 52.67293 | 5.85769 | 37142 ft | 466 kts | 102° |
| 2026-05-08 01:48 | 52.65502 | 6.01509 | 37141 ft | 466 kts | 102° |
| 2026-05-08 01:48 | 52.64275 | 6.11975 | 37141 ft | 465 kts | 102° |
| 2026-05-08 01:49 | 52.62973 | 6.22411 | 37143 ft | 465 kts | 103° |
| 2026-05-08 01:49 | 52.61635 | 6.32833 | 37136 ft | 465 kts | 103° |
| 2026-05-08 01:50 | 52.60304 | 6.43246 | 37141 ft | 465 kts | 103° |
| 2026-05-08 01:50 | 52.58971 | 6.53654 | 37131 ft | 465 kts | 103° |
| 2026-05-08 01:51 | 52.57643 | 6.63993 | 37129 ft | 465 kts | 103° |
| 2026-05-08 01:51 | 52.56311 | 6.74402 | 37138 ft | 466 kts | 100° |
| 2026-05-08 01:52 | 52.55913 | 6.85042 | 37139 ft | 467 kts | 93° |
| 2026-05-08 01:52 | 52.55642 | 6.95724 | 36180 ft | 473 kts | 93° |
| 2026-05-08 01:53 | 52.55499 | 7.01147 | 35213 ft | 478 kts | 93° |
| 2026-05-08 01:53 | 52.55353 | 7.06611 | 34393 ft | 479 kts | 93° |
| 2026-05-08 01:53 | 52.55202 | 7.12082 | 33514 ft | 480 kts | 94° |
| 2026-05-08 01:53 | 52.55039 | 7.17554 | 32576 ft | 480 kts | 94° |
| 2026-05-08 01:54 | 52.54866 | 7.23037 | 31620 ft | 480 kts | 94° |
| 2026-05-08 01:54 | 52.54691 | 7.28511 | 30643 ft | 481 kts | 94° |
| 2026-05-08 01:54 | 52.54519 | 7.34002 | 29655 ft | 480 kts | 94° |
| 2026-05-08 01:54 | 52.54352 | 7.39449 | 28663 ft | 477 kts | 94° |
| 2026-05-08 01:55 | 52.54190 | 7.44872 | 27739 ft | 474 kts | 94° |
| 2026-05-08 01:55 | 52.54027 | 7.50251 | 26919 ft | 469 kts | 94° |
| 2026-05-08 01:55 | 52.53860 | 7.55556 | 26124 ft | 460 kts | 94° |
| 2026-05-08 01:55 | 52.53694 | 7.60762 | 25020 ft | 453 kts | 94° |
| 2026-05-08 01:56 | 52.53532 | 7.65882 | 23959 ft | 446 kts | 94° |
| 2026-05-08 01:56 | 52.53372 | 7.70940 | 22759 ft | 439 kts | 94° |
| 2026-05-08 01:56 | 52.53212 | 7.75898 | 21594 ft | 432 kts | 94° |
| 2026-05-08 01:56 | 52.53048 | 7.80783 | 20518 ft | 424 kts | 94° |
| 2026-05-08 01:57 | 52.52887 | 7.85491 | 20058 ft | 403 kts | 94° |
| 2026-05-08 01:57 | 52.52733 | 7.89988 | 19575 ft | 385 kts | 94° |
| 2026-05-08 01:57 | 52.52582 | 7.94282 | 19108 ft | 369 kts | 94° |
| 2026-05-08 01:57 | 52.52434 | 7.98442 | 18652 ft | 366 kts | 94° |
| 2026-05-08 01:58 | 52.52280 | 8.02619 | 17981 ft | 367 kts | 94° |
| 2026-05-08 01:58 | 52.52130 | 8.06726 | 17488 ft | 362 kts | 94° |
| 2026-05-08 01:58 | 52.51980 | 8.10878 | 16993 ft | 358 kts | 94° |
| 2026-05-08 01:58 | 52.51833 | 8.14946 | 16507 ft | 355 kts | 94° |
| 2026-05-08 01:59 | 52.51686 | 8.18901 | 16021 ft | 352 kts | 94° |
| 2026-05-08 01:59 | 52.51538 | 8.22909 | 15525 ft | 349 kts | 94° |
| 2026-05-08 01:59 | 52.51391 | 8.26871 | 15028 ft | 346 kts | 94° |
| 2026-05-08 01:59 | 52.51243 | 8.30798 | 14531 ft | 343 kts | 94° |
| 2026-05-08 02:00 | 52.51096 | 8.34688 | 14035 ft | 340 kts | 94° |
| 2026-05-08 02:00 | 52.50949 | 8.38555 | 13505 ft | 337 kts | 94° |
| 2026-05-08 02:00 | 52.50801 | 8.42374 | 13000 ft | 334 kts | 94° |
| 2026-05-08 02:00 | 52.50653 | 8.46165 | 12522 ft | 331 kts | 94° |
| 2026-05-08 02:01 | 52.50504 | 8.49922 | 12029 ft | 328 kts | 94° |
| 2026-05-08 02:01 | 52.50355 | 8.53652 | 11546 ft | 326 kts | 94° |
| 2026-05-08 02:01 | 52.50205 | 8.57349 | 11069 ft | 324 kts | 94° |
| 2026-05-08 02:01 | 52.50056 | 8.61018 | 10626 ft | 319 kts | 94° |
| 2026-05-08 02:02 | 52.49911 | 8.64566 | 10496 ft | 304 kts | 94° |
| 2026-05-08 02:02 | 52.49771 | 8.67966 | 10276 ft | 294 kts | 94° |
| 2026-05-08 02:02 | 52.49635 | 8.71276 | 9994 ft | 289 kts | 94° |
| 2026-05-08 02:02 | 52.49499 | 8.74556 | 9822 ft | 287 kts | 95° |
| 2026-05-08 02:03 | 52.49364 | 8.77820 | 9688 ft | 286 kts | 94° |
| 2026-05-08 02:03 | 52.49225 | 8.81072 | 9553 ft | 285 kts | 94° |
| 2026-05-08 02:03 | 52.49085 | 8.84356 | 8996 ft | 289 kts | 94° |
| 2026-05-08 02:03 | 52.48951 | 8.87456 | 8969 ft | 257 kts | 95° |
| 2026-05-08 02:04 | 52.48826 | 8.90283 | 8831 ft | 250 kts | 95° |
| 2026-05-08 02:04 | 52.48698 | 8.93148 | 8219 ft | 255 kts | 94° |
| 2026-05-08 02:04 | 52.48573 | 8.96016 | 7890 ft | 248 kts | 94° |
| 2026-05-08 02:04 | 52.48450 | 8.98818 | 7754 ft | 245 kts | 94° |
| 2026-05-08 02:05 | 52.48335 | 9.01603 | 7603 ft | 245 kts | 93° |
| 2026-05-08 02:05 | 52.48266 | 9.04385 | 7239 ft | 242 kts | 92° |
| 2026-05-08 02:05 | 52.48220 | 9.07137 | 6917 ft | 240 kts | 91° |
| 2026-05-08 02:05 | 52.48176 | 9.09856 | 6607 ft | 238 kts | 91° |
| 2026-05-08 02:06 | 52.48129 | 9.12558 | 6283 ft | 236 kts | 92° |
| 2026-05-08 02:06 | 52.48076 | 9.15234 | 5972 ft | 234 kts | 92° |
| 2026-05-08 02:06 | 52.48020 | 9.17898 | 5668 ft | 233 kts | 92° |
| 2026-05-08 02:06 | 52.47951 | 9.20546 | 5386 ft | 231 kts | 92° |
| 2026-05-08 02:07 | 52.47884 | 9.23180 | 5251 ft | 231 kts | 92° |
| 2026-05-08 02:07 | 52.47822 | 9.25802 | 4980 ft | 230 kts | 92° |
| 2026-05-08 02:07 | 52.47761 | 9.28382 | 4665 ft | 223 kts | 92° |
| 2026-05-08 02:07 | 52.47701 | 9.30881 | 4364 ft | 215 kts | 92° |
| 2026-05-08 02:08 | 52.47643 | 9.33275 | 4087 ft | 207 kts | 92° |
| 2026-05-08 02:08 | 52.47586 | 9.35615 | 3792 ft | 205 kts | 92° |
| 2026-05-08 02:08 | 52.47528 | 9.37949 | 3514 ft | 204 kts | 91° |
| 2026-05-08 02:08 | 52.47471 | 9.40261 | 3234 ft | 199 kts | 92° |
| 2026-05-08 02:09 | 52.47417 | 9.42411 | 2969 ft | 179 kts | 92° |
| 2026-05-08 02:09 | 52.47368 | 9.44395 | 2733 ft | 170 kts | 92° |
| 2026-05-08 02:09 | 52.47319 | 9.46304 | 2523 ft | 167 kts | 92° |
| 2026-05-08 02:09 | 52.47271 | 9.48197 | 2281 ft | 165 kts | 92° |
| 2026-05-08 02:10 | 52.47223 | 9.50074 | 2050 ft | 165 kts | 92° |
| 2026-05-08 02:10 | 52.47175 | 9.51946 | 1825 ft | 164 kts | 92° |
| 2026-05-08 02:10 | 52.47127 | 9.53807 | 1598 ft | 163 kts | 92° |
| 2026-05-08 02:10 | 52.47078 | 9.55662 | 1370 ft | 162 kts | 92° |
| 2026-05-08 02:11 | 52.47030 | 9.57509 | 1173 ft | 162 kts | 92° |
| 2026-05-08 02:11 | 52.46981 | 9.59353 | 934 ft | 157 kts | 92° |
| 2026-05-08 02:11 | 52.46940 | 9.61037 | 735 ft | 141 kts | 92° |
| 2026-05-08 02:11 | 52.46897 | 9.62618 | 575 ft | 137 kts | 92° |
| 2026-05-08 02:12 | 52.46850 | 9.64167 | 357 ft | 136 kts | 92° |
| 2026-05-08 02:12 | 52.46826 | 9.65187 | 197 ft | 134 kts | 91° |
| 2026-05-08 02:12 | 52.46790 | 9.66560 | 176 ft | 106 kts | 92° |
| 2026-05-08 02:12 | 52.46767 | 9.67409 | 174 ft | 37 kts | 92° |
| 2026-05-08 02:13 | 52.46758 | 9.67806 | 175 ft | 32 kts | 94° |
| 2026-05-08 02:13 | 52.46684 | 9.68110 | 177 ft | 29 kts | 139° |
| 2026-05-08 02:13 | 52.46552 | 9.68271 | 178 ft | 23 kts | 143° |
| 2026-05-08 02:13 | 52.46431 | 9.68428 | 178 ft | 17 kts | 143° |
| 2026-05-08 02:14 | 52.46330 | 9.68552 | 179 ft | 19 kts | 143° |
| 2026-05-08 02:14 | 52.46221 | 9.68692 | 179 ft | 19 kts | 141° |
| 2026-05-08 02:14 | 52.46127 | 9.68805 | 179 ft | 18 kts | 140° |
| 2026-05-08 02:14 | 52.46029 | 9.68934 | 179 ft | 11 kts | 143° |
| 2026-05-08 02:15 | 52.45961 | 9.69016 | 179 ft | 14 kts | 143° |
| 2026-05-08 02:15 | 52.45887 | 9.69107 | 179 ft | 8 kts | 142° |
| 2026-05-08 02:15 | 52.45835 | 9.69172 | 179 ft | 11 kts | 142° |
| 2026-05-08 02:15 | 52.45810 | 9.69204 | 179 ft | 4 kts | 142° |
| 2026-05-08 02:16 | 52.45804 | 9.69239 | 179 ft | 4 kts | 66° |
| 2026-05-08 02:16 | 52.45823 | 9.69284 | 179 ft | 6 kts | 47° |
| 2026-05-08 02:16 | 52.45837 | 9.69308 | 179 ft | 2 kts | 47° |
| 2026-05-08 02:16 | 52.45841 | 9.69316 | 179 ft | 0 kts | 47° |